createdAt,value
2018-11-25T00:00:10.004Z,36.48
2018-11-25T00:02:37.590Z,37.70
2018-11-25T00:05:05.422Z,35.98
2018-11-25T00:07:34.872Z,34.13
2018-11-25T00:10:00.898Z,35.25
2018-11-25T00:12:28.553Z,41.95
2018-11-25T00:14:56.106Z,38.17
2018-11-25T00:17:24.064Z,33.67
2018-11-25T00:19:51.430Z,35.08
2018-11-25T00:22:19.107Z,37.60
2018-11-25T00:24:46.499Z,34.35
2018-11-25T00:27:16.848Z,33.73
2018-11-25T00:29:44.214Z,35.30
2018-11-25T00:32:11.822Z,33.33
2018-11-25T00:34:39.261Z,35.20
2018-11-25T00:37:06.834Z,36.20
2018-11-25T00:39:34.564Z,34.05
2018-11-25T00:42:01.961Z,34.18
2018-11-25T00:44:29.300Z,33.23
2018-11-25T00:46:56.931Z,33.40
2018-11-25T00:49:24.523Z,33.13
2018-11-25T00:51:52.541Z,33.35
2018-11-25T00:54:20.123Z,33.73
2018-11-25T00:56:47.823Z,34.45
2018-11-25T00:59:15.964Z,34.00
2018-11-25T01:01:43.807Z,36.10
2018-11-25T01:04:11.879Z,31.77
2018-11-25T01:06:39.435Z,33.80
2018-11-25T01:09:08.226Z,34.08
2018-11-25T01:11:36.077Z,33.02
2018-11-25T01:14:03.707Z,32.63
2018-11-25T01:16:31.136Z,33.58
2018-11-25T01:18:58.485Z,34.33
2018-11-25T01:21:26.120Z,34.98
2018-11-25T01:23:53.953Z,32.45
2018-11-25T01:26:21.518Z,33.60
2018-11-25T01:28:48.883Z,33.10
2018-11-25T01:31:16.502Z,33.85
2018-11-25T01:33:44.062Z,34.73
2018-11-25T01:36:11.645Z,32.73
2018-11-25T01:38:39.263Z,33.42
2018-11-25T01:41:07.107Z,32.65
2018-11-25T01:43:34.706Z,35.28
2018-11-25T01:46:02.309Z,33.00
2018-11-25T01:48:29.970Z,34.67
2018-11-25T01:50:57.535Z,35.90
2018-11-25T01:53:25.123Z,35.20
2018-11-25T01:55:52.697Z,33.88
2018-11-25T01:58:20.312Z,34.65
2018-11-25T02:00:47.865Z,36.63
2018-11-25T02:03:15.532Z,32.35
2018-11-25T02:05:43.331Z,32.90
2018-11-25T02:08:10.642Z,33.30
2018-11-25T02:10:38.123Z,33.00
2018-11-25T02:13:05.754Z,34.13
2018-11-25T02:15:33.238Z,32.38
2018-11-25T02:18:00.816Z,32.98
2018-11-25T02:20:28.381Z,32.48
2018-11-25T02:22:56.207Z,30.82
2018-11-25T02:25:24.346Z,33.00
2018-11-25T02:27:51.849Z,32.88
2018-11-25T02:30:19.420Z,31.95
2018-11-25T02:32:47.473Z,33.55
2018-11-25T02:35:15.462Z,31.80
2018-11-25T02:37:42.818Z,32.40
2018-11-25T02:40:11.139Z,29.60
2018-11-25T02:42:38.507Z,30.65
2018-11-25T02:45:07.291Z,30.08
2018-11-25T02:47:34.646Z,29.60
2018-11-25T02:50:02.710Z,29.23
2018-11-25T02:52:30.285Z,31.07
2018-11-25T02:54:57.859Z,31.73
2018-11-25T02:57:25.702Z,30.52
2018-11-25T02:59:53.491Z,27.58
2018-11-25T03:02:20.913Z,30.35
2018-11-25T03:04:48.374Z,29.70
2018-11-25T03:07:15.712Z,28.85
2018-11-25T03:09:43.340Z,29.10
2018-11-25T03:12:10.675Z,28.25
2018-11-25T03:14:38.033Z,29.80
2018-11-25T03:17:05.425Z,28.83
2018-11-25T03:19:32.746Z,28.42
2018-11-25T03:22:00.090Z,29.60
2018-11-25T03:24:27.469Z,27.07
2018-11-25T03:26:54.822Z,27.93
2018-11-25T03:29:22.677Z,26.60
2018-11-25T03:31:50.272Z,26.82
2018-11-25T03:34:18.420Z,27.45
2018-11-25T03:36:45.778Z,27.65
2018-11-25T03:39:13.337Z,26.55
2018-11-25T03:41:40.739Z,28.80
2018-11-25T03:44:08.090Z,25.92
2018-11-25T03:46:35.430Z,26.42
2018-11-25T03:49:02.796Z,26.65
2018-11-25T03:51:30.375Z,27.93
2018-11-25T03:53:57.760Z,26.80
2018-11-25T03:56:25.362Z,25.45
2018-11-25T03:58:53.292Z,25.50
2018-11-25T04:01:20.663Z,25.20
2018-11-25T04:03:48.273Z,26.57
2018-11-25T04:06:15.615Z,25.45
2018-11-25T04:08:43.286Z,26.05
2018-11-25T04:11:11.131Z,24.35
2018-11-25T04:13:38.717Z,25.17
2018-11-25T04:16:06.074Z,25.45
2018-11-25T04:18:33.851Z,26.77
2018-11-25T04:21:01.186Z,23.87
2018-11-25T04:23:29.358Z,24.72
2018-11-25T04:25:56.758Z,26.27
2018-11-25T04:28:24.352Z,23.65
2018-11-25T04:30:51.933Z,23.98
2018-11-25T04:33:19.495Z,23.95
2018-11-25T04:35:47.070Z,25.43
2018-11-25T04:38:14.940Z,23.40
2018-11-25T04:40:42.749Z,23.98
2018-11-25T04:43:10.128Z,22.87
2018-11-25T04:45:38.023Z,23.92
2018-11-25T04:48:05.602Z,25.60
2018-11-25T04:50:33.231Z,24.52
2018-11-25T04:53:00.915Z,24.63
2018-11-25T04:55:28.489Z,21.85
2018-11-25T04:57:55.909Z,21.33
2018-11-25T05:00:23.285Z,21.12
2018-11-25T05:02:51.387Z,22.77
2018-11-25T05:05:19.612Z,20.48
2018-11-25T05:07:46.964Z,22.85
2018-11-25T05:10:16.677Z,21.80
2018-11-25T05:12:44.014Z,21.60
2018-11-25T05:15:12.006Z,21.37
2018-11-25T05:17:39.345Z,21.07
2018-11-25T05:20:07.674Z,22.93
2018-11-25T05:22:35.038Z,22.13
2018-11-25T05:25:02.945Z,23.87
2018-11-25T05:27:30.288Z,21.68
2018-11-25T05:29:58.139Z,22.27
2018-11-25T05:32:25.747Z,23.87
2018-11-25T05:34:53.327Z,18.65
2018-11-25T05:37:20.721Z,21.90
2018-11-25T05:39:48.940Z,21.27
2018-11-25T05:42:16.289Z,22.20
2018-11-25T05:44:43.688Z,20.82
2018-11-25T05:47:12.459Z,21.05
2018-11-25T05:49:40.393Z,21.23
2018-11-25T05:52:07.986Z,21.10
2018-11-25T05:54:35.929Z,20.72
2018-11-25T05:57:03.275Z,19.48
2018-11-25T05:59:30.860Z,19.65
2018-11-25T06:01:58.331Z,20.65
2018-11-25T06:04:26.135Z,20.72
2018-11-25T06:06:53.875Z,19.05
2018-11-25T06:09:21.694Z,18.35
2018-11-25T06:11:49.309Z,19.48
2018-11-25T06:14:16.770Z,19.65
2018-11-25T06:16:44.355Z,19.98
2018-11-25T06:19:11.937Z,19.20
2018-11-25T06:21:39.836Z,21.10
2018-11-25T06:24:07.239Z,19.87
2018-11-25T06:26:34.872Z,19.62
2018-11-25T06:29:02.227Z,21.50
2018-11-25T06:31:31.655Z,20.95
2018-11-25T06:33:59.011Z,20.08
2018-11-25T06:36:26.412Z,21.37
2018-11-25T06:38:54.004Z,21.05
2018-11-25T06:41:21.587Z,20.37
2018-11-25T06:43:49.158Z,22.37
2018-11-25T06:46:16.759Z,21.23
2018-11-25T06:48:44.185Z,22.15
2018-11-25T06:51:11.608Z,21.80
2018-11-25T06:53:39.203Z,20.45
2018-11-25T06:56:07.007Z,22.25
2018-11-25T06:58:34.394Z,20.00
2018-11-25T07:01:02.025Z,23.57
2018-11-25T07:03:30.426Z,23.35
2018-11-25T07:05:57.790Z,23.00
2018-11-25T07:08:25.261Z,22.27
2018-11-25T07:10:52.711Z,20.92
2018-11-25T07:13:20.055Z,21.55
2018-11-25T07:15:47.490Z,22.75
2018-11-25T07:18:15.216Z,21.50
2018-11-25T07:20:42.588Z,22.48
2018-11-25T07:23:10.165Z,23.47
2018-11-25T07:25:37.768Z,22.48
2018-11-25T07:28:18.069Z,22.10
2018-11-25T07:30:32.726Z,21.17
2018-11-25T07:33:00.343Z,22.02
2018-11-25T07:35:27.909Z,21.68
2018-11-25T07:37:55.325Z,21.37
2018-11-25T07:40:24.191Z,21.45
2018-11-25T07:42:51.780Z,21.48
2018-11-25T07:45:19.853Z,21.48
2018-11-25T07:47:47.407Z,20.50
2018-11-25T07:50:14.797Z,21.87
2018-11-25T07:52:42.664Z,22.07
2018-11-25T07:55:11.756Z,21.15
2018-11-25T07:57:39.514Z,21.15
2018-11-25T08:00:10.076Z,21.82
2018-11-25T08:02:41.606Z,21.97
2018-11-25T08:05:05.893Z,21.70
2018-11-25T08:07:33.272Z,20.80
2018-11-25T08:10:00.641Z,19.25
2018-11-25T08:12:28.222Z,20.35
2018-11-25T08:14:55.577Z,22.22
2018-11-25T08:17:23.175Z,21.23
2018-11-25T08:19:50.654Z,20.70
2018-11-25T08:22:18.542Z,20.92
2018-11-25T08:24:46.144Z,20.48
2018-11-25T08:27:13.942Z,20.35
2018-11-25T08:29:41.512Z,20.25
2018-11-25T08:32:08.906Z,22.93
2018-11-25T08:34:36.890Z,19.55
2018-11-25T08:37:04.591Z,20.17
2018-11-25T08:39:32.203Z,21.68
2018-11-25T08:41:59.792Z,22.22
2018-11-25T08:44:27.131Z,22.45
2018-11-25T08:46:54.479Z,21.35
2018-11-25T08:49:21.841Z,19.73
2018-11-25T08:51:49.500Z,21.82
2018-11-25T08:54:16.923Z,20.55
2018-11-25T08:56:45.002Z,22.85
2018-11-25T08:59:12.591Z,20.68
2018-11-25T09:01:40.417Z,30.80
2018-11-25T09:04:08.105Z,21.68
2018-11-25T09:06:35.482Z,22.25
2018-11-25T09:09:03.199Z,21.52
2018-11-25T09:11:30.791Z,21.85
2018-11-25T09:13:58.357Z,27.62
2018-11-25T09:16:28.215Z,25.52
2018-11-25T09:18:56.561Z,24.72
2018-11-25T09:21:24.257Z,22.20
2018-11-25T09:23:54.952Z,22.30
2018-11-25T09:26:22.966Z,24.02
2018-11-25T09:28:50.298Z,21.25
2018-11-25T09:31:17.967Z,22.90
2018-11-25T09:33:45.494Z,23.92
2018-11-25T09:36:13.817Z,21.30
2018-11-25T09:38:42.402Z,24.05
2018-11-25T09:41:09.758Z,24.10
2018-11-25T09:43:37.420Z,24.25
2018-11-25T09:46:05.625Z,24.27
2018-11-25T09:48:33.663Z,25.10
2018-11-25T09:51:02.700Z,24.27
2018-11-25T09:53:30.547Z,23.95
2018-11-25T09:55:58.696Z,23.52
2018-11-25T09:58:26.260Z,25.50
2018-11-25T10:00:53.663Z,25.68
2018-11-25T10:03:24.703Z,25.15
2018-11-25T10:05:52.976Z,24.70
2018-11-25T10:08:20.407Z,24.63
2018-11-25T10:10:52.657Z,26.15
2018-11-25T10:13:15.631Z,24.60
2018-11-25T10:15:43.224Z,27.55
2018-11-25T10:18:10.605Z,26.73
2018-11-25T10:20:37.958Z,28.35
2018-11-25T10:23:05.580Z,26.68
2018-11-25T10:25:33.150Z,25.52
2018-11-25T10:28:00.496Z,27.55
2018-11-25T10:30:28.371Z,24.30
2018-11-25T10:32:56.351Z,25.97
2018-11-25T10:35:23.680Z,24.57
2018-11-25T10:37:51.030Z,26.33
2018-11-25T10:40:20.083Z,28.75
2018-11-25T10:42:47.473Z,27.80
2018-11-25T10:45:15.449Z,26.20
2018-11-25T10:47:43.067Z,29.82
2018-11-25T10:50:12.224Z,28.32
2018-11-25T10:52:39.584Z,26.35
2018-11-25T10:55:07.784Z,26.00
2018-11-25T10:57:35.351Z,28.42
2018-11-25T11:00:02.912Z,26.42
2018-11-25T11:02:35.854Z,27.32
2018-11-25T11:05:06.069Z,29.37
2018-11-25T11:07:45.701Z,31.00
2018-11-25T11:10:13.109Z,28.40
2018-11-25T11:12:40.501Z,31.42
2018-11-25T11:15:08.909Z,31.95
2018-11-25T11:17:36.302Z,30.27
2018-11-25T11:20:04.412Z,32.03
2018-11-25T11:22:32.014Z,30.35
2018-11-25T11:24:59.351Z,32.75
2018-11-25T11:27:26.735Z,33.60
2018-11-25T11:29:54.350Z,33.02
2018-11-25T11:32:22.367Z,31.75
2018-11-25T11:34:49.968Z,31.62
2018-11-25T11:37:21.186Z,34.85
2018-11-25T11:39:48.931Z,34.35
2018-11-25T11:42:17.063Z,30.52
2018-11-25T11:44:45.136Z,33.05
2018-11-25T11:47:12.792Z,32.45
2018-11-25T11:49:40.803Z,31.87
2018-11-25T11:52:08.833Z,31.27
2018-11-25T11:54:37.248Z,33.13
2018-11-25T11:57:08.001Z,33.10
2018-11-25T11:59:35.889Z,31.75
2018-11-25T12:02:03.220Z,35.38
2018-11-25T12:04:30.837Z,30.55
2018-11-25T12:06:58.194Z,32.63
2018-11-25T12:09:25.780Z,31.25
2018-11-25T12:11:53.184Z,29.32
2018-11-25T12:14:20.552Z,32.60
2018-11-25T12:16:48.304Z,30.70
2018-11-25T12:19:16.127Z,32.53
2018-11-25T12:21:43.546Z,30.23
2018-11-25T12:24:11.169Z,32.25
2018-11-25T12:26:39.514Z,33.92
2018-11-25T12:29:08.441Z,32.50
2018-11-25T12:31:37.522Z,33.60
2018-11-25T12:34:05.746Z,32.48
2018-11-25T12:36:33.804Z,34.43
2018-11-25T12:39:03.931Z,32.03
2018-11-25T12:41:33.670Z,34.58
2018-11-25T12:44:04.366Z,31.62
2018-11-25T12:46:34.042Z,34.63
2018-11-25T12:49:03.003Z,37.05
2018-11-25T12:51:31.880Z,34.40
2018-11-25T12:54:01.042Z,51.10
2018-11-25T12:56:29.059Z,55.65
2018-11-25T12:58:58.905Z,40.83
2018-11-25T13:01:29.419Z,37.65
2018-11-25T13:04:00.067Z,40.88
2018-11-25T13:06:31.043Z,40.12
2018-11-25T13:09:01.120Z,47.17
2018-11-25T13:11:31.316Z,39.25
2018-11-25T13:14:00.004Z,46.10
2018-11-25T13:16:28.670Z,46.65
2018-11-25T13:18:57.102Z,38.10
2018-11-25T13:21:26.175Z,38.28
2018-11-25T13:23:56.668Z,37.63
2018-11-25T13:26:25.061Z,50.28
2018-11-25T13:28:55.549Z,45.65
2018-11-25T13:31:23.469Z,39.05
2018-11-25T13:33:52.156Z,37.25
2018-11-25T13:36:21.472Z,37.13
2018-11-25T13:38:51.553Z,41.18
2018-11-25T13:41:20.760Z,38.08
2018-11-25T13:43:48.351Z,38.70
2018-11-25T13:46:15.700Z,38.55
2018-11-25T13:48:43.294Z,39.50
2018-11-25T13:51:10.679Z,39.03
2018-11-25T13:53:38.174Z,37.15
2018-11-25T13:56:05.879Z,39.18
2018-11-25T13:58:33.507Z,36.42
2018-11-25T14:01:00.889Z,37.60
2018-11-25T14:03:35.067Z,38.20
2018-11-25T14:06:02.489Z,39.75
2018-11-25T14:08:30.008Z,38.33
2018-11-25T14:11:00.351Z,41.05
2018-11-25T14:13:27.721Z,36.77
2018-11-25T14:15:55.309Z,37.08
2018-11-25T14:18:23.718Z,38.08
2018-11-25T14:20:51.409Z,37.35
2018-11-25T14:23:20.788Z,39.08
2018-11-25T14:25:49.915Z,38.83
2018-11-25T14:28:17.298Z,42.05
2018-11-25T14:30:44.638Z,39.13
2018-11-25T14:33:13.146Z,37.95
2018-11-25T14:35:41.140Z,38.58
2018-11-25T14:38:10.055Z,40.78
2018-11-25T14:40:38.048Z,40.90
2018-11-25T14:43:06.126Z,38.45
2018-11-25T14:45:34.780Z,37.73
2018-11-25T14:48:02.371Z,36.23
2018-11-25T14:50:30.435Z,38.67
2018-11-25T14:52:58.366Z,36.68
2018-11-25T14:55:26.702Z,38.33
2018-11-25T14:57:55.719Z,37.73
2018-11-25T15:00:24.443Z,36.98
2018-11-25T15:02:59.296Z,35.90
2018-11-25T15:05:28.400Z,36.53
2018-11-25T15:07:56.007Z,37.03
2018-11-25T15:10:23.755Z,37.95
2018-11-25T15:12:51.168Z,34.73
2018-11-25T15:15:18.760Z,36.70
2018-11-25T15:17:46.472Z,37.08
2018-11-25T15:20:13.879Z,36.45
2018-11-25T15:22:42.004Z,38.65
2018-11-25T15:25:10.354Z,36.70
2018-11-25T15:27:37.705Z,38.05
2018-11-25T15:30:06.347Z,38.08
2018-11-25T15:32:34.183Z,37.40
2018-11-25T15:35:01.574Z,37.33
2018-11-25T15:37:29.230Z,39.58
2018-11-25T15:39:56.907Z,35.13
2018-11-25T15:42:24.487Z,35.65
2018-11-25T15:44:52.065Z,35.88
2018-11-25T15:47:19.431Z,36.00
2018-11-25T15:49:47.028Z,37.73
2018-11-25T15:52:14.392Z,38.23
2018-11-25T15:54:42.267Z,35.30
2018-11-25T15:57:09.863Z,38.35
2018-11-25T15:59:38.855Z,40.80
2018-11-25T16:02:06.501Z,37.98
2018-11-25T16:04:34.049Z,39.10
2018-11-25T16:07:03.190Z,40.80
2018-11-25T16:09:32.063Z,37.40
2018-11-25T16:12:00.111Z,40.20
2018-11-25T16:14:28.884Z,39.92
2018-11-25T16:16:56.865Z,41.20
2018-11-25T16:19:26.303Z,40.45
2018-11-25T16:21:56.184Z,42.23
2018-11-25T16:24:26.202Z,40.75
2018-11-25T16:26:57.057Z,40.67
2018-11-25T16:29:26.896Z,37.93
2018-11-25T16:31:54.242Z,42.62
2018-11-25T16:34:21.846Z,41.75
2018-11-25T16:36:49.227Z,40.73
2018-11-25T16:39:16.676Z,40.23
2018-11-25T16:41:44.064Z,34.40
2018-11-25T16:44:11.428Z,40.30
2018-11-25T16:46:38.987Z,39.23
2018-11-25T16:49:06.855Z,39.10
2018-11-25T16:51:34.187Z,41.63
2018-11-25T16:54:01.760Z,42.75
2018-11-25T16:56:29.120Z,37.85
2018-11-25T16:58:56.459Z,45.00
2018-11-25T17:01:23.853Z,42.80
2018-11-25T17:03:51.912Z,45.08
2018-11-25T17:06:19.313Z,42.30
2018-11-25T17:08:46.727Z,46.75
2018-11-25T17:11:14.474Z,46.50
2018-11-25T17:13:42.320Z,41.25
2018-11-25T17:16:09.975Z,42.83
2018-11-25T17:18:37.819Z,49.55
2018-11-25T17:21:05.667Z,41.80
2018-11-25T17:23:33.000Z,45.23
2018-11-25T17:26:01.191Z,43.87
2018-11-25T17:28:29.185Z,45.73
2018-11-25T17:30:56.722Z,47.70
2018-11-25T17:33:24.326Z,43.75
2018-11-25T17:35:52.312Z,46.98
2018-11-25T17:38:20.011Z,46.13
2018-11-25T17:40:47.446Z,50.35
2018-11-25T17:43:16.288Z,48.50
2018-11-25T17:45:43.771Z,46.08
2018-11-25T17:48:11.390Z,47.27
2018-11-25T17:50:38.840Z,45.17
2018-11-25T17:53:06.858Z,44.58
2018-11-25T17:55:34.225Z,50.30
2018-11-25T17:58:01.754Z,44.27
2018-11-25T18:00:36.379Z,46.98
2018-11-25T18:03:07.636Z,40.15
2018-11-25T18:05:38.853Z,47.35
2018-11-25T18:08:05.101Z,47.40
2018-11-25T18:10:33.969Z,46.42
2018-11-25T18:13:02.390Z,46.77
2018-11-25T18:15:31.009Z,50.05
2018-11-25T18:18:01.544Z,47.03
2018-11-25T18:20:32.084Z,48.68
2018-11-25T18:22:59.629Z,51.28
2018-11-25T18:25:27.009Z,46.88
2018-11-25T18:28:00.375Z,46.33
2018-11-25T18:30:21.782Z,48.58
2018-11-25T18:32:49.189Z,51.20
2018-11-25T18:35:16.765Z,46.23
2018-11-25T18:37:44.099Z,50.55
2018-11-25T18:40:12.034Z,46.48
2018-11-25T18:42:39.532Z,46.05
2018-11-25T18:45:08.433Z,45.00
2018-11-25T18:47:36.267Z,49.77
2018-11-25T18:50:03.707Z,48.05
2018-11-25T18:52:31.329Z,46.83
2018-11-25T18:54:58.376Z,43.65
2018-11-25T18:57:25.715Z,45.43
2018-11-25T18:59:53.065Z,43.05
2018-11-25T19:02:23.121Z,45.33
2018-11-25T19:04:50.798Z,45.33
2018-11-25T19:07:18.143Z,44.40
2018-11-25T19:09:47.482Z,41.05
2018-11-25T19:12:15.324Z,42.40
2018-11-25T19:14:43.242Z,41.85
2018-11-25T19:17:11.296Z,41.08
2018-11-25T19:19:39.290Z,41.63
2018-11-25T19:22:08.153Z,37.33
2018-11-25T19:24:36.237Z,41.58
2018-11-25T19:27:04.450Z,39.83
2018-11-25T19:29:32.609Z,41.70
2018-11-25T19:32:01.327Z,40.80
2018-11-25T19:34:29.325Z,40.00
2018-11-25T19:36:57.324Z,41.08
2018-11-25T19:39:26.911Z,42.08
2018-11-25T19:41:54.902Z,46.15
2018-11-25T19:44:22.592Z,43.45
2018-11-25T19:46:51.137Z,40.00
2018-11-25T19:49:20.693Z,40.60
2018-11-25T19:51:48.974Z,42.00
2018-11-25T19:54:20.685Z,41.28
2018-11-25T19:56:49.468Z,41.73
2018-11-25T19:59:18.624Z,43.65
2018-11-25T20:01:49.607Z,42.50
2018-11-25T20:04:18.130Z,40.88
2018-11-25T20:06:48.257Z,43.60
2018-11-25T20:09:19.248Z,43.40
2018-11-25T20:11:49.201Z,45.33
2018-11-25T20:14:19.304Z,41.08
2018-11-25T20:17:56.208Z,42.53
2018-11-25T20:20:26.629Z,38.53
2018-11-25T20:22:56.939Z,42.20
2018-11-25T20:25:24.965Z,42.83
2018-11-25T20:27:54.407Z,43.25
2018-11-25T20:30:26.920Z,46.37
2018-11-25T20:33:00.048Z,42.83
2018-11-25T20:35:28.545Z,41.85
2018-11-25T20:38:04.110Z,42.88
2018-11-25T20:40:33.880Z,42.60
2018-11-25T20:43:03.367Z,41.83
2018-11-25T20:45:39.065Z,42.45
2018-11-25T20:48:08.055Z,40.45
2018-11-25T20:50:37.005Z,42.27
2018-11-25T20:53:10.620Z,41.73
2018-11-25T20:55:38.698Z,43.80
2018-11-25T20:58:07.934Z,39.60
2018-11-25T21:00:36.571Z,44.08
2018-11-25T21:03:05.051Z,41.40
2018-11-25T21:05:33.639Z,44.20
2018-11-25T21:08:02.623Z,42.60
2018-11-25T21:10:30.844Z,43.45
2018-11-25T21:12:59.227Z,43.10
2018-11-25T21:15:28.861Z,42.00
2018-11-25T21:17:57.589Z,43.85
2018-11-25T21:20:29.032Z,44.15
2018-11-25T21:22:57.367Z,40.78
2018-11-25T21:25:27.569Z,41.00
2018-11-25T21:27:56.480Z,39.63
2018-11-25T21:30:25.270Z,38.67
2018-11-25T21:32:53.373Z,39.27
2018-11-25T21:35:20.733Z,38.53
2018-11-25T21:37:48.057Z,42.55
2018-11-25T21:40:17.105Z,40.85
2018-11-25T21:42:44.970Z,40.23
2018-11-25T21:45:13.750Z,40.38
2018-11-25T21:47:41.200Z,42.90
2018-11-25T21:50:10.034Z,38.08
2018-11-25T21:52:37.634Z,40.12
2018-11-25T21:55:05.832Z,39.85
2018-11-25T21:57:33.620Z,41.05
2018-11-25T22:00:01.211Z,42.75
2018-11-25T22:02:29.992Z,39.18
2018-11-25T22:04:57.562Z,38.25
2018-11-25T22:07:25.121Z,38.38
2018-11-25T22:09:52.683Z,40.38
2018-11-25T22:12:20.010Z,40.80
2018-11-25T22:14:47.391Z,40.55
2018-11-25T22:17:14.709Z,43.87
2018-11-25T22:19:42.372Z,39.35
2018-11-25T22:22:09.937Z,42.03
2018-11-25T22:24:37.387Z,38.15
2018-11-25T22:27:04.765Z,40.80
2018-11-25T22:29:32.198Z,39.95
2018-11-25T22:31:59.538Z,41.92
2018-11-25T22:34:26.909Z,39.03
2018-11-25T22:36:54.479Z,40.60
2018-11-25T22:39:28.634Z,39.38
2018-11-25T22:41:55.990Z,43.02
2018-11-25T22:44:23.602Z,40.48
2018-11-25T22:46:52.315Z,43.70
2018-11-25T22:49:19.789Z,41.92
2018-11-25T22:51:47.376Z,41.98
2018-11-25T22:54:14.703Z,40.05
2018-11-25T22:56:42.111Z,41.23
2018-11-25T22:59:09.669Z,44.38
2018-11-25T23:01:37.266Z,39.92
2018-11-25T23:04:10.430Z,39.20
2018-11-25T23:06:43.579Z,40.08
2018-11-25T23:09:11.146Z,41.33
2018-11-25T23:11:38.485Z,40.00
2018-11-25T23:14:06.093Z,44.05
2018-11-25T23:16:33.646Z,41.70
2018-11-25T23:19:00.970Z,41.48
2018-11-25T23:21:28.304Z,38.35
2018-11-25T23:23:55.678Z,41.63
2018-11-25T23:26:22.999Z,42.85
2018-11-25T23:28:50.349Z,41.37
2018-11-25T23:31:17.919Z,46.58
2018-11-25T23:33:45.240Z,40.95
2018-11-25T23:36:12.664Z,42.70
2018-11-25T23:38:40.223Z,40.15
2018-11-25T23:41:07.579Z,42.00
2018-11-25T23:43:35.402Z,41.70
2018-11-25T23:46:03.011Z,42.35
2018-11-25T23:48:30.360Z,40.10
2018-11-25T23:50:57.939Z,43.38
2018-11-25T23:53:25.760Z,43.55
2018-11-25T23:55:53.406Z,42.23
2018-11-25T23:58:20.800Z,42.67
